createdAt,value
2018-02-20T00:00:03.425Z,73.37
2018-02-20T00:02:31.001Z,73.73
2018-02-20T00:04:58.815Z,73.28
2018-02-20T00:07:26.414Z,73.68
2018-02-20T00:09:53.993Z,73.92
2018-02-20T00:12:21.592Z,73.66
2018-02-20T00:14:49.258Z,74.22
2018-02-20T00:17:16.835Z,74.18
2018-02-20T00:19:44.796Z,74.52
2018-02-20T00:22:16.261Z,74.19
2018-02-20T00:24:44.010Z,74.35
2018-02-20T00:27:11.599Z,74.32
2018-02-20T00:29:39.234Z,74.04
2018-02-20T00:32:06.801Z,73.74
2018-02-20T00:34:34.440Z,73.88
2018-02-20T00:37:02.072Z,73.06
2018-02-20T00:39:29.650Z,73.40
2018-02-20T00:41:57.320Z,73.67
2018-02-20T00:44:25.886Z,73.38
2018-02-20T00:46:53.466Z,73.67
2018-02-20T00:49:21.044Z,73.68
2018-02-20T00:51:49.395Z,73.16
2018-02-20T00:54:16.986Z,73.48
2018-02-20T00:56:44.589Z,73.47
2018-02-20T00:59:12.221Z,73.29
2018-02-20T01:01:39.792Z,73.12
2018-02-20T01:04:07.375Z,73.38
2018-02-20T01:06:35.004Z,73.51
2018-02-20T01:09:02.595Z,73.27
2018-02-20T01:11:30.157Z,73.42
2018-02-20T01:13:57.773Z,72.87
2018-02-20T01:16:25.345Z,73.15
2018-02-20T01:18:52.913Z,72.69
2018-02-20T01:21:20.531Z,73.16
2018-02-20T01:23:48.098Z,73.10
2018-02-20T01:26:16.597Z,73.33
2018-02-20T01:28:44.235Z,73.08
2018-02-20T01:31:11.811Z,72.84
2018-02-20T01:33:39.376Z,72.59
2018-02-20T01:36:06.988Z,73.02
2018-02-20T01:38:34.613Z,72.37
2018-02-20T01:41:05.957Z,72.44
2018-02-20T01:43:33.613Z,72.27
2018-02-20T01:46:01.217Z,72.17
2018-02-20T01:48:34.796Z,71.97
2018-02-20T01:51:11.537Z,72.23
2018-02-20T01:53:40.140Z,72.10
2018-02-20T01:56:07.819Z,72.34
2018-02-20T01:58:35.944Z,72.25
2018-02-20T02:01:03.684Z,72.38
2018-02-20T02:03:31.542Z,72.69
2018-02-20T02:05:59.912Z,72.65
2018-02-20T02:08:29.680Z,73.09
2018-02-20T02:10:57.953Z,72.85
2018-02-20T02:13:25.548Z,73.50
2018-02-20T02:15:55.743Z,73.85
2018-02-20T02:18:28.725Z,73.73
2018-02-20T02:20:59.245Z,74.05
2018-02-20T02:23:29.187Z,74.07
2018-02-20T02:25:57.875Z,73.39
2018-02-20T02:28:26.266Z,73.72
2018-02-20T02:30:55.147Z,73.67
2018-02-20T02:33:22.716Z,73.28
2018-02-20T02:35:50.329Z,73.50
2018-02-20T02:38:17.906Z,73.57
2018-02-20T02:40:45.469Z,73.38
2018-02-20T02:43:13.084Z,73.47
2018-02-20T02:45:40.635Z,73.56
2018-02-20T02:48:08.196Z,73.14
2018-02-20T02:50:35.834Z,73.60
2018-02-20T02:53:03.420Z,73.18
2018-02-20T02:55:30.996Z,73.48
2018-02-20T02:57:58.610Z,73.56
2018-02-20T03:00:26.709Z,73.29
2018-02-20T03:02:54.294Z,73.81
2018-02-20T03:05:21.927Z,74.05
2018-02-20T03:07:49.499Z,73.93
2018-02-20T03:10:17.068Z,74.24
2018-02-20T03:12:44.757Z,74.51
2018-02-20T03:15:12.754Z,74.56
2018-02-20T03:17:40.389Z,74.77
2018-02-20T03:20:08.022Z,75.16
2018-02-20T03:22:35.582Z,75.22
2018-02-20T03:25:03.186Z,75.38
2018-02-20T03:27:31.024Z,75.41
2018-02-20T03:29:58.704Z,75.11
2018-02-20T03:32:26.338Z,74.95
2018-02-20T03:34:53.948Z,74.83
2018-02-20T03:37:21.543Z,74.89
2018-02-20T03:39:49.113Z,75.33
2018-02-20T03:42:16.787Z,75.06
2018-02-20T03:44:44.358Z,75.39
2018-02-20T03:47:11.932Z,75.83
2018-02-20T03:49:39.542Z,75.41
2018-02-20T03:52:07.111Z,75.56
2018-02-20T03:54:34.689Z,75.68
2018-02-20T03:57:02.557Z,75.87
2018-02-20T03:59:30.146Z,76.38
2018-02-20T04:01:57.714Z,76.55
2018-02-20T04:04:25.329Z,76.54
2018-02-20T04:06:52.883Z,76.77
2018-02-20T04:09:20.448Z,76.25
2018-02-20T04:11:48.084Z,75.94
2018-02-20T04:14:15.715Z,76.31
2018-02-20T04:16:43.285Z,76.18
2018-02-20T04:19:10.916Z,76.03
2018-02-20T04:21:38.472Z,76.25
2018-02-20T04:24:06.059Z,76.58
2018-02-20T04:26:33.717Z,76.54
2018-02-20T04:29:01.355Z,76.43
2018-02-20T04:31:29.556Z,76.57
2018-02-20T04:33:57.195Z,77.04
2018-02-20T04:36:24.845Z,76.72
2018-02-20T04:38:52.486Z,76.69
2018-02-20T04:41:20.114Z,76.60
2018-02-20T04:43:47.678Z,76.19
2018-02-20T04:46:15.251Z,75.91
2018-02-20T04:48:42.884Z,76.25
2018-02-20T04:51:10.461Z,76.36
2018-02-20T04:53:38.027Z,76.29
2018-02-20T04:56:05.723Z,76.34
2018-02-20T04:58:33.333Z,76.56
2018-02-20T05:01:00.969Z,76.40
2018-02-20T05:03:28.601Z,76.02
2018-02-20T05:05:56.161Z,75.91
2018-02-20T05:08:23.806Z,76.22
2018-02-20T05:10:51.428Z,75.37
2018-02-20T05:13:19.017Z,75.78
2018-02-20T05:15:46.614Z,76.23
2018-02-20T05:18:14.242Z,76.50
2018-02-20T05:20:41.812Z,76.86
2018-02-20T05:23:09.552Z,76.08
2018-02-20T05:25:37.642Z,76.13
2018-02-20T05:28:05.235Z,76.31
2018-02-20T05:30:32.871Z,76.40
2018-02-20T05:33:00.729Z,76.61
2018-02-20T05:35:28.312Z,76.81
2018-02-20T05:37:55.877Z,76.90
2018-02-20T05:40:23.520Z,76.61
2018-02-20T05:42:51.094Z,76.29
2018-02-20T05:45:18.656Z,76.20
2018-02-20T05:47:47.143Z,75.91
2018-02-20T05:50:14.704Z,75.87
2018-02-20T05:52:43.046Z,76.47
2018-02-20T05:55:10.671Z,75.92
2018-02-20T05:57:38.268Z,75.91
2018-02-20T06:00:05.826Z,75.83
2018-02-20T06:02:33.452Z,75.99
2018-02-20T06:05:01.025Z,75.46
2018-02-20T06:07:28.670Z,75.21
2018-02-20T06:09:56.373Z,75.49
2018-02-20T06:12:23.934Z,75.42
2018-02-20T06:14:51.648Z,75.48
2018-02-20T06:17:19.269Z,75.31
2018-02-20T06:19:46.873Z,75.22
2018-02-20T06:22:14.450Z,75.04
2018-02-20T06:24:42.140Z,74.21
2018-02-20T06:27:09.773Z,74.41
2018-02-20T06:29:37.375Z,74.76
2018-02-20T06:32:05.104Z,74.45
2018-02-20T06:34:32.850Z,74.42
2018-02-20T06:37:00.517Z,74.66
2018-02-20T06:39:28.184Z,73.62
2018-02-20T06:41:55.756Z,74.19
2018-02-20T06:44:23.415Z,74.26
2018-02-20T06:46:51.051Z,74.25
2018-02-20T06:49:18.634Z,74.29
2018-02-20T06:51:46.264Z,73.79
2018-02-20T06:54:13.949Z,74.25
2018-02-20T06:56:41.518Z,74.11
2018-02-20T06:59:09.092Z,73.96
2018-02-20T07:01:36.730Z,73.76
2018-02-20T07:04:04.342Z,74.34
2018-02-20T07:06:31.938Z,73.81
2018-02-20T07:08:59.573Z,73.91
2018-02-20T07:11:27.200Z,74.81
2018-02-20T07:13:55.585Z,73.49
2018-02-20T07:16:23.211Z,73.74
2018-02-20T07:18:50.791Z,74.09
2018-02-20T07:21:18.429Z,73.84
2018-02-20T07:23:46.060Z,74.37
2018-02-20T07:26:13.656Z,74.69
2018-02-20T07:28:41.334Z,74.27
2018-02-20T07:31:08.979Z,73.73
2018-02-20T07:33:36.549Z,73.93
2018-02-20T07:36:04.286Z,74.74
2018-02-20T07:38:31.902Z,74.39
2018-02-20T07:40:59.471Z,74.54
2018-02-20T07:43:27.055Z,74.74
2018-02-20T07:45:54.680Z,74.64
2018-02-20T07:48:22.284Z,74.70
2018-02-20T07:50:49.937Z,75.03
2018-02-20T07:53:17.573Z,74.70
2018-02-20T07:55:45.146Z,74.88
2018-02-20T07:58:12.749Z,75.47
2018-02-20T08:00:40.412Z,75.12
2018-02-20T08:03:07.994Z,75.72
2018-02-20T08:05:35.587Z,75.73
2018-02-20T08:08:03.215Z,75.29
2018-02-20T08:10:31.243Z,75.75
2018-02-20T08:12:59.803Z,75.36
2018-02-20T08:15:27.445Z,75.41
2018-02-20T08:17:55.008Z,75.70
2018-02-20T08:20:22.654Z,75.72
2018-02-20T08:22:50.339Z,75.79
2018-02-20T08:25:17.937Z,76.01
2018-02-20T08:27:45.594Z,76.24
2018-02-20T08:30:13.221Z,76.39
2018-02-20T08:32:40.815Z,76.06
2018-02-20T08:35:08.467Z,76.25
2018-02-20T08:37:36.253Z,76.08
2018-02-20T08:40:03.837Z,75.87
2018-02-20T08:42:31.440Z,76.28
2018-02-20T08:44:59.086Z,75.90
2018-02-20T08:47:26.722Z,75.74
2018-02-20T08:49:54.312Z,75.94
2018-02-20T08:52:22.810Z,75.64
2018-02-20T08:54:50.434Z,76.08
2018-02-20T08:57:18.014Z,75.72
2018-02-20T08:59:45.661Z,76.15
2018-02-20T09:02:13.252Z,75.55
2018-02-20T09:04:40.830Z,75.15
2018-02-20T09:07:08.611Z,75.84
2018-02-20T09:09:36.213Z,76.22
2018-02-20T09:12:03.806Z,75.98
2018-02-20T09:14:31.494Z,76.36
2018-02-20T09:16:59.086Z,76.18
2018-02-20T09:19:26.924Z,75.90
2018-02-20T09:21:54.715Z,75.92
2018-02-20T09:24:22.287Z,75.91
2018-02-20T09:26:50.051Z,76.29
2018-02-20T09:29:17.907Z,75.70
2018-02-20T09:31:45.505Z,75.37
2018-02-20T09:34:13.161Z,75.89
2018-02-20T09:36:40.822Z,75.89
2018-02-20T09:39:08.504Z,75.02
2018-02-20T09:41:36.062Z,75.61
2018-02-20T09:44:03.753Z,75.87
2018-02-20T09:46:31.313Z,75.65
2018-02-20T09:48:59.225Z,76.04
2018-02-20T09:51:26.922Z,75.56
2018-02-20T09:53:54.489Z,75.08
2018-02-20T09:56:22.066Z,75.36
2018-02-20T09:58:49.699Z,75.39
2018-02-20T10:01:17.345Z,75.39
2018-02-20T10:03:44.989Z,75.31
2018-02-20T10:06:12.622Z,74.83
2018-02-20T10:08:40.219Z,74.65
2018-02-20T10:11:07.804Z,74.99
2018-02-20T10:13:35.419Z,74.98
2018-02-20T10:16:03.019Z,74.90
2018-02-20T10:18:30.596Z,75.27
2018-02-20T10:20:58.246Z,76.14
2018-02-20T10:23:26.575Z,75.68
2018-02-20T10:25:54.136Z,75.46
2018-02-20T10:28:21.774Z,75.27
2018-02-20T10:30:49.352Z,75.85
2018-02-20T10:33:16.923Z,75.72
2018-02-20T10:35:44.793Z,75.70
2018-02-20T10:38:12.376Z,75.56
2018-02-20T10:40:40.082Z,76.04
2018-02-20T10:43:07.771Z,75.86
2018-02-20T10:45:35.342Z,75.37
2018-02-20T10:48:02.918Z,75.78
2018-02-20T10:50:30.525Z,76.12
2018-02-20T10:52:58.162Z,76.74
2018-02-20T10:55:25.758Z,77.91
2018-02-20T10:57:53.389Z,77.84
2018-02-20T11:00:20.956Z,77.97
2018-02-20T11:02:48.555Z,78.51
2018-02-20T11:05:16.194Z,78.51
2018-02-20T11:07:43.775Z,78.67
2018-02-20T11:10:11.360Z,78.93
2018-02-20T11:12:38.979Z,78.48
2018-02-20T11:15:06.618Z,78.79
2018-02-20T11:17:34.220Z,78.41
2018-02-20T11:20:01.874Z,78.43
2018-02-20T11:22:29.967Z,78.78
2018-02-20T11:24:57.926Z,78.50
2018-02-20T11:27:25.778Z,78.07
2018-02-20T11:29:53.358Z,78.09
2018-02-20T11:32:20.929Z,78.20
2018-02-20T11:34:48.705Z,78.64
2018-02-20T11:37:16.272Z,78.82
2018-02-20T11:39:43.910Z,78.34
2018-02-20T11:42:13.534Z,78.97
2018-02-20T11:44:41.110Z,78.59
2018-02-20T11:47:08.675Z,78.84
2018-02-20T11:49:36.394Z,78.42
2018-02-20T11:52:03.965Z,78.39
2018-02-20T11:54:31.538Z,78.82
2018-02-20T11:56:59.178Z,79.16
2018-02-20T11:59:27.654Z,79.26
2018-02-20T12:01:55.228Z,79.29
2018-02-20T12:04:23.110Z,79.67
2018-02-20T12:06:50.682Z,79.95
2018-02-20T12:09:18.317Z,79.42
2018-02-20T12:11:46.004Z,79.85
2018-02-20T12:14:13.564Z,79.43
2018-02-20T12:16:41.151Z,79.15
2018-02-20T12:19:08.789Z,78.91
2018-02-20T12:21:36.384Z,78.99
2018-02-20T12:24:03.966Z,78.84
2018-02-20T12:26:31.565Z,78.68
2018-02-20T12:28:59.149Z,79.23
2018-02-20T12:31:26.787Z,79.21
2018-02-20T12:33:54.433Z,79.54
2018-02-20T12:36:22.087Z,78.93
2018-02-20T12:38:50.981Z,78.93
2018-02-20T12:41:18.894Z,78.49
2018-02-20T12:43:46.598Z,77.94
2018-02-20T12:46:14.156Z,78.23
2018-02-20T12:48:41.777Z,78.44
2018-02-20T12:51:09.359Z,78.27
2018-02-20T12:53:36.944Z,78.79
2018-02-20T12:56:05.355Z,78.98
2018-02-20T12:58:32.916Z,79.34
2018-02-20T13:01:00.492Z,79.10
2018-02-20T13:03:30.062Z,79.66
2018-02-20T13:05:57.720Z,79.63
2018-02-20T13:08:25.783Z,79.84
2018-02-20T13:10:53.419Z,79.93
2018-02-20T13:13:21.098Z,79.94
2018-02-20T13:15:48.676Z,80.02
2018-02-20T13:18:16.324Z,80.30
2018-02-20T13:20:43.906Z,80.37
2018-02-20T13:23:11.494Z,80.27
2018-02-20T13:25:39.133Z,80.04
2018-02-20T13:28:06.697Z,80.15
2018-02-20T13:30:34.360Z,80.29
2018-02-20T13:33:01.989Z,80.42
2018-02-20T13:35:29.554Z,79.98
2018-02-20T13:37:57.128Z,79.62
2018-02-20T13:40:25.352Z,79.59
2018-02-20T13:42:52.948Z,79.68
2018-02-20T13:45:20.778Z,79.67
2018-02-20T13:47:48.785Z,79.14
2018-02-20T13:50:16.370Z,79.10
2018-02-20T13:52:43.946Z,79.21
2018-02-20T13:55:11.600Z,79.07
2018-02-20T13:57:39.239Z,79.14
2018-02-20T14:00:06.819Z,79.03
2018-02-20T14:02:34.454Z,79.11
2018-02-20T14:05:02.024Z,79.54
2018-02-20T14:07:29.602Z,79.43
2018-02-20T14:09:57.248Z,79.19
2018-02-20T14:12:24.834Z,79.94
2018-02-20T14:14:52.420Z,79.63
2018-02-20T14:17:20.056Z,79.89
2018-02-20T14:19:47.653Z,79.85
2018-02-20T14:22:15.246Z,79.67
2018-02-20T14:24:42.893Z,79.39
2018-02-20T14:27:11.313Z,79.39
2018-02-20T14:29:39.135Z,79.46
2018-02-20T14:32:06.812Z,79.32
2018-02-20T14:34:34.386Z,79.01
2018-02-20T14:37:01.966Z,78.87
2018-02-20T14:39:29.656Z,79.00
2018-02-20T14:41:57.318Z,79.03
2018-02-20T14:44:24.899Z,78.79
2018-02-20T14:46:52.617Z,78.51
2018-02-20T14:49:20.198Z,78.42
2018-02-20T14:51:47.786Z,78.45
2018-02-20T14:54:15.470Z,78.48
2018-02-20T14:56:43.143Z,78.38
2018-02-20T14:59:10.748Z,78.58
2018-02-20T15:01:38.593Z,79.01
2018-02-20T15:04:06.170Z,79.39
2018-02-20T15:06:33.810Z,79.12
2018-02-20T15:09:01.537Z,79.50
2018-02-20T15:11:29.104Z,79.59
2018-02-20T15:13:56.721Z,79.63
2018-02-20T15:16:24.372Z,79.62
2018-02-20T15:18:51.974Z,79.52
2018-02-20T15:21:19.568Z,79.64
2018-02-20T15:23:47.248Z,80.04
2018-02-20T15:26:14.828Z,80.04
2018-02-20T15:28:42.427Z,79.89
2018-02-20T15:31:10.090Z,79.74
2018-02-20T15:33:37.663Z,79.81
2018-02-20T15:36:05.249Z,80.01
2018-02-20T15:38:33.110Z,79.96
2018-02-20T15:41:00.669Z,79.92
2018-02-20T15:43:28.232Z,80.11
2018-02-20T15:45:55.879Z,80.22
2018-02-20T15:48:23.566Z,80.61
2018-02-20T15:50:51.172Z,80.40
2018-02-20T15:53:18.842Z,80.53
2018-02-20T15:55:46.483Z,80.62
2018-02-20T15:58:14.129Z,80.44
2018-02-20T16:00:41.819Z,80.41
2018-02-20T16:03:09.395Z,80.20
2018-02-20T16:05:36.975Z,80.05
2018-02-20T16:08:04.659Z,80.22
2018-02-20T16:10:32.243Z,80.19
2018-02-20T16:12:59.805Z,80.64
2018-02-20T16:15:27.478Z,80.51
2018-02-20T16:17:55.065Z,80.80
2018-02-20T16:20:22.638Z,80.99
2018-02-20T16:22:50.260Z,80.97
2018-02-20T16:25:17.894Z,80.83
2018-02-20T16:27:45.562Z,81.20
2018-02-20T16:30:13.179Z,81.33
2018-02-20T16:32:40.744Z,81.41
2018-02-20T16:35:08.374Z,81.15
2018-02-20T16:37:36.275Z,81.01
2018-02-20T16:40:03.885Z,81.20
2018-02-20T16:42:31.519Z,81.39
2018-02-20T16:44:59.192Z,81.44
2018-02-20T16:47:26.794Z,81.80
2018-02-20T16:49:55.299Z,81.77
2018-02-20T16:52:22.897Z,81.85
2018-02-20T16:54:50.458Z,81.88
2018-02-20T16:57:18.086Z,82.34
2018-02-20T16:59:45.738Z,82.16
2018-02-20T17:02:13.297Z,82.62
2018-02-20T17:04:40.867Z,82.76
2018-02-20T17:07:08.494Z,82.96
2018-02-20T17:09:36.127Z,82.89
2018-02-20T17:12:03.701Z,83.03
2018-02-20T17:14:31.335Z,82.60
2018-02-20T17:16:58.906Z,82.59
2018-02-20T17:19:26.479Z,82.70
2018-02-20T17:21:54.106Z,82.62
2018-02-20T17:24:21.889Z,82.51
2018-02-20T17:26:49.538Z,82.36
2018-02-20T17:29:17.231Z,82.32
2018-02-20T17:31:44.785Z,82.38
2018-02-20T17:34:12.358Z,82.10
2018-02-20T17:36:40.504Z,81.97
2018-02-20T17:39:08.489Z,82.09
2018-02-20T17:41:36.070Z,81.86
2018-02-20T17:44:03.889Z,82.03
2018-02-20T17:46:31.469Z,82.20
2018-02-20T17:48:59.114Z,82.23
2018-02-20T17:51:26.855Z,82.13
2018-02-20T17:53:54.410Z,82.37
2018-02-20T17:56:21.984Z,82.19
2018-02-20T17:58:49.632Z,82.42
2018-02-20T18:01:17.202Z,81.88
2018-02-20T18:03:44.886Z,81.90
2018-02-20T18:06:12.889Z,82.03
2018-02-20T18:08:40.468Z,82.12
2018-02-20T18:11:08.054Z,81.99
2018-02-20T18:13:35.710Z,81.93
2018-02-20T18:16:03.292Z,82.02
2018-02-20T18:18:30.867Z,82.33
2018-02-20T18:20:58.829Z,81.80
2018-02-20T18:23:26.384Z,81.86
2018-02-20T18:25:54.042Z,81.85
2018-02-20T18:28:21.680Z,81.95
2018-02-20T18:30:49.253Z,82.02
2018-02-20T18:33:16.828Z,82.00
2018-02-20T18:35:44.446Z,81.80
2018-02-20T18:38:12.975Z,81.55
2018-02-20T18:40:40.712Z,81.79
2018-02-20T18:43:08.353Z,81.36
2018-02-20T18:45:35.916Z,81.48
2018-02-20T18:48:03.497Z,81.59
2018-02-20T18:50:31.114Z,82.15
2018-02-20T18:52:58.810Z,81.88
2018-02-20T18:55:26.382Z,81.68
2018-02-20T18:57:54.370Z,82.19
2018-02-20T19:00:21.943Z,81.79
2018-02-20T19:02:49.496Z,81.65
2018-02-20T19:05:17.285Z,81.34
2018-02-20T19:07:44.858Z,81.65
2018-02-20T19:10:12.448Z,81.43
2018-02-20T19:12:40.073Z,81.42
2018-02-20T19:15:07.662Z,81.40
2018-02-20T19:17:35.250Z,81.69
2018-02-20T19:20:03.401Z,81.12
2018-02-20T19:22:30.978Z,81.16
2018-02-20T19:24:59.072Z,81.06
2018-02-20T19:27:26.701Z,80.89
2018-02-20T19:29:54.258Z,81.16
2018-02-20T19:32:21.818Z,81.20
2018-02-20T19:34:49.501Z,81.07
2018-02-20T19:37:17.080Z,81.30
2018-02-20T19:39:44.709Z,81.44
2018-02-20T19:42:12.341Z,81.26
2018-02-20T19:44:39.906Z,81.33
2018-02-20T19:47:08.139Z,81.04
2018-02-20T19:49:35.791Z,81.30
2018-02-20T19:52:03.371Z,80.98
2018-02-20T19:54:31.801Z,81.21
2018-02-20T19:56:59.430Z,81.06
2018-02-20T19:59:27.021Z,81.00
2018-02-20T20:01:54.608Z,80.70
2018-02-20T20:04:22.238Z,80.62
2018-02-20T20:06:49.816Z,80.16
2018-02-20T20:09:17.463Z,80.19
2018-02-20T20:11:45.096Z,80.03
2018-02-20T20:14:12.685Z,80.33
2018-02-20T20:16:40.363Z,80.58
2018-02-20T20:19:08.116Z,80.18
2018-02-20T20:21:35.714Z,80.08
2018-02-20T20:24:03.283Z,80.20
2018-02-20T20:26:30.887Z,79.99
2018-02-20T20:28:58.473Z,80.11
2018-02-20T20:31:26.057Z,79.72
2018-02-20T20:33:53.690Z,80.40
2018-02-20T20:36:21.272Z,79.88
2018-02-20T20:38:48.838Z,79.96
2018-02-20T20:41:16.728Z,79.83
2018-02-20T20:43:49.245Z,79.76
2018-02-20T20:46:16.879Z,79.69
2018-02-20T20:48:44.642Z,79.81
2018-02-20T20:51:12.205Z,79.84
2018-02-20T20:53:39.828Z,79.72
2018-02-20T20:56:07.612Z,79.61
2018-02-20T20:58:35.195Z,79.58
2018-02-20T21:01:02.834Z,79.52
2018-02-20T21:03:30.462Z,79.26
2018-02-20T21:05:58.025Z,79.24
2018-02-20T21:08:29.258Z,79.06
2018-02-20T21:10:56.833Z,79.41
2018-02-20T21:13:24.393Z,79.03
2018-02-20T21:15:52.035Z,79.39
2018-02-20T21:18:19.643Z,79.48
2018-02-20T21:20:47.218Z,79.53
2018-02-20T21:23:15.180Z,79.51
2018-02-20T21:25:42.743Z,79.14
2018-02-20T21:28:10.805Z,79.17
2018-02-20T21:30:38.443Z,79.16
2018-02-20T21:33:06.070Z,78.85
2018-02-20T21:35:33.646Z,79.06
2018-02-20T21:38:01.276Z,78.62
2018-02-20T21:40:28.874Z,79.11
2018-02-20T21:42:56.427Z,79.30
2018-02-20T21:45:24.302Z,79.26
2018-02-20T21:47:51.873Z,79.36
2018-02-20T21:50:19.441Z,79.23
2018-02-20T21:52:47.095Z,79.17
2018-02-20T21:55:14.667Z,79.05
2018-02-20T21:57:43.175Z,79.08
2018-02-20T22:00:10.839Z,79.08
2018-02-20T22:02:38.408Z,79.09
2018-02-20T22:05:05.990Z,79.02
2018-02-20T22:07:33.634Z,78.86
2018-02-20T22:10:03.371Z,78.53
2018-02-20T22:12:30.955Z,78.40
2018-02-20T22:14:58.631Z,78.15
2018-02-20T22:17:26.294Z,78.21
2018-02-20T22:19:53.872Z,78.45
2018-02-20T22:22:21.538Z,78.38
2018-02-20T22:24:49.100Z,78.33
2018-02-20T22:27:16.690Z,78.29
2018-02-20T22:29:44.714Z,78.22
2018-02-20T22:32:12.315Z,78.10
2018-02-20T22:34:39.893Z,78.21
2018-02-20T22:37:07.626Z,78.10
2018-02-20T22:39:35.194Z,78.06
2018-02-20T22:42:02.830Z,78.09
2018-02-20T22:44:30.526Z,78.00
2018-02-20T22:46:58.165Z,78.33
2018-02-20T22:49:25.754Z,78.04
2018-02-20T22:51:53.650Z,78.37
2018-02-20T22:54:21.278Z,78.57
2018-02-20T22:56:48.842Z,78.65
2018-02-20T22:59:17.160Z,78.68
2018-02-20T23:01:44.836Z,78.74
2018-02-20T23:04:12.423Z,78.99
2018-02-20T23:06:40.056Z,79.34
2018-02-20T23:09:07.854Z,79.37
2018-02-20T23:11:47.236Z,79.57
2018-02-20T23:14:14.792Z,79.96
2018-02-20T23:16:42.352Z,80.08
2018-02-20T23:19:09.986Z,80.14
2018-02-20T23:21:37.549Z,80.26
2018-02-20T23:24:05.333Z,80.24
2018-02-20T23:26:32.948Z,80.16
2018-02-20T23:29:00.513Z,79.91
2018-02-20T23:31:28.101Z,79.86
2018-02-20T23:33:55.722Z,80.01
2018-02-20T23:36:23.282Z,79.77
2018-02-20T23:38:50.843Z,79.65
2018-02-20T23:41:18.465Z,79.69
2018-02-20T23:43:46.028Z,79.73
2018-02-20T23:46:13.616Z,79.55
2018-02-20T23:48:41.593Z,79.40
2018-02-20T23:51:15.149Z,79.57
2018-02-20T23:53:43.112Z,79.60
2018-02-20T23:56:10.703Z,79.44
2018-02-20T23:58:38.269Z,79.71
